Time,TemperatureF,DewpointF,PressureIn,WindDirection,WindDirectionDegrees,WindSpeedMPH,WindSpeedGustMPH,Humidity,HourlyPrecipIn,Conditions,Clouds,dailyrainin,SolarRadiationWatts/m^2,SoftwareType,DateUTC
2013-02-22 01:11:00,22.7,18.0,30.10,East,80,8.1,0.0,82,0.00,CLR,,0.00,0.0,WeatherDisplay:10.37,2013-02-22 00:11:00,
2013-02-22 01:16:00,22.7,18.0,30.09,East,83,3.0,3.0,82,0.00,CLR,,0.00,0.0,WeatherDisplay:10.37,2013-02-22 00:16:00,
2013-02-22 01:21:00,22.6,18.2,30.09,ENE,57,6.9,6.9,83,0.00,CLR,,0.00,0.0,WeatherDisplay:10.37,2013-02-22 00:21:00,
2013-02-22 01:26:00,22.4,17.7,30.09,East,86,7.0,7.0,82,0.00,CLR,,0.00,0.0,WeatherDisplay:10.37,2013-02-22 00:26:00,
2013-02-22 01:31:00,22.2,17.5,30.09,ENE,68,6.0,6.0,82,0.00,CLR,,0.00,0.0,WeatherDisplay:10.37,2013-02-22 00:31:00,
2013-02-22 01:36:00,22.1,17.2,30.09,East,84,5.0,5.0,81,0.00,CLR,,0.00,0.0,WeatherDisplay:10.37,2013-02-22 00:36:00,
2013-02-22 01:41:00,22.1,17.2,30.09,ENE,64,5.0,5.0,81,0.00,CLR,,0.00,0.0,WeatherDisplay:10.37,2013-02-22 00:41:00,
2013-02-22 01:46:00,22.1,17.2,30.10,East,85,3.5,3.5,81,0.00,CLR,,0.00,0.0,WeatherDisplay:10.37,2013-02-22 00:46:00,
2013-02-22 01:51:00,22.1,17.4,30.09,ENE,71,4.6,4.6,82,0.00,CLR,,0.00,0.0,WeatherDisplay:10.37,2013-02-22 00:51:00,
2013-02-22 01:56:00,22.1,17.4,30.09,East,93,4.0,4.0,82,0.00,CLR,,0.00,0.0,WeatherDisplay:10.37,2013-02-22 00:56:00,
2013-02-22 02:01:00,22.1,17.4,30.09,East,86,4.0,4.0,82,0.00,CLR,,0.00,0.0,WeatherDisplay:10.37,2013-02-22 01:01:00,
2013-02-22 02:06:00,22.1,17.4,30.09,East,85,3.5,3.5,82,0.00,CLR,,0.00,0.0,WeatherDisplay:10.37,2013-02-22 01:06:00,
2013-02-22 02:11:00,22.1,17.4,30.09,ESE,109,4.6,4.6,82,0.00,CLR,,0.00,0.0,WeatherDisplay:10.37,2013-02-22 01:11:00,
2013-02-22 02:16:00,22.0,17.3,30.09,ESE,107,3.5,3.5,82,0.00,CLR,,0.00,0.0,WeatherDisplay:10.37,2013-02-22 01:16:00,
2013-02-22 02:21:00,22.0,17.6,30.09,East,85,4.0,4.0,83,0.00,CLR,,0.00,0.0,WeatherDisplay:10.37,2013-02-22 01:21:00,
2013-02-22 02:26:00,22.0,17.6,30.09,East,97,2.3,2.3,83,0.00,CLR,,0.00,0.0,WeatherDisplay:10.37,2013-02-22 01:26:00,
2013-02-22 02:31:00,21.9,17.5,30.09,ENE,75,3.0,3.0,83,0.00,CLR,,0.00,0.0,WeatherDisplay:10.37,2013-02-22 01:31:00,
2013-02-22 02:36:00,21.9,17.5,30.09,ENE,74,4.0,4.0,83,0.00,CLR,,0.00,0.0,WeatherDisplay:10.37,2013-02-22 01:36:00,
2013-02-22 02:41:00,21.9,17.5,30.08,ENE,74,3.5,3.5,83,0.00,CLR,,0.00,0.0,WeatherDisplay:10.37,2013-02-22 01:41:00,
2013-02-22 02:46:00,21.9,17.5,30.08,ENE,74,4.0,4.0,83,0.00,CLR,,0.00,0.0,WeatherDisplay:10.37,2013-02-22 01:46:00,
2013-02-22 02:51:00,21.9,17.5,30.08,ENE,74,3.0,3.0,83,0.00,CLR,,0.00,0.0,WeatherDisplay:10.37,2013-02-22 01:51:00,
2013-02-22 02:56:00,21.9,17.5,30.08,ENE,74,2.3,2.3,83,0.00,CLR,,0.00,0.0,WeatherDisplay:10.37,2013-02-22 01:56:00,
2013-02-22 03:01:00,21.8,17.7,30.08,ENE,74,2.3,2.3,84,0.00,CLR,,0.00,0.0,WeatherDisplay:10.37,2013-02-22 02:01:00,
2013-02-22 03:06:00,21.7,17.6,30.08,ENE,74,3.5,3.5,84,0.00,CLR,,0.00,0.0,WeatherDisplay:10.37,2013-02-22 02:06:00,
2013-02-22 03:11:00,21.7,17.6,30.08,ENE,74,3.5,3.5,84,0.00,CLR,,0.00,0.0,WeatherDisplay:10.37,2013-02-22 02:11:00,
2013-02-22 03:16:00,21.6,17.5,30.07,ENE,74,3.5,3.5,84,0.00,CLR,,0.00,0.0,WeatherDisplay:10.37,2013-02-22 02:16:00,
2013-02-22 03:21:00,21.6,17.8,30.07,ENE,74,3.5,3.5,85,0.00,CLR,,0.00,0.0,WeatherDisplay:10.37,2013-02-22 02:21:00,
2013-02-22 03:26:00,21.5,17.7,30.07,ENE,74,2.3,2.3,85,0.00,CLR,,0.00,0.0,WeatherDisplay:10.37,2013-02-22 02:26:00,
2013-02-22 03:31:00,21.6,17.8,30.07,ENE,74,2.0,2.0,85,0.00,CLR,,0.00,0.0,WeatherDisplay:10.37,2013-02-22 02:31:00,
2013-02-22 03:36:00,21.5,17.7,30.07,ENE,74,1.2,1.2,85,0.00,CLR,,0.00,0.0,WeatherDisplay:10.37,2013-02-22 02:36:00,
2013-02-22 03:41:00,21.5,17.7,30.06,ENE,74,0.0,0.0,85,0.00,CLR,,0.00,0.0,WeatherDisplay:10.37,2013-02-22 02:41:00,
2013-02-22 03:46:00,21.4,17.6,30.06,ENE,74,0.0,0.0,85,0.00,CLR,,0.00,0.0,WeatherDisplay:10.37,2013-02-22 02:46:00,
2013-02-22 03:51:00,21.5,17.7,30.06,ENE,74,0.0,0.0,85,0.00,CLR,,0.00,0.0,WeatherDisplay:10.37,2013-02-22 02:51:00,
2013-02-22 03:56:00,21.3,17.5,30.06,ENE,74,0.0,0.0,85,0.00,CLR,,0.00,0.0,WeatherDisplay:10.37,2013-02-22 02:56:00,
2013-02-22 04:01:00,21.4,17.6,30.06,ENE,74,0.0,0.0,85,0.00,CLR,,0.00,0.0,WeatherDisplay:10.37,2013-02-22 03:01:00,
2013-02-22 04:06:00,21.2,17.4,30.06,ENE,74,0.0,0.0,85,0.00,CLR,,0.00,0.0,WeatherDisplay:10.37,2013-02-22 03:06:00,
2013-02-22 04:11:00,21.1,17.3,30.06,ENE,74,0.0,0.0,85,0.00,CLR,,0.00,0.0,WeatherDisplay:10.37,2013-02-22 03:11:00,
2013-02-22 04:16:00,21.1,17.3,30.06,ENE,74,0.0,0.0,85,0.00,CLR,,0.00,0.0,WeatherDisplay:10.37,2013-02-22 03:16:00,
2013-02-22 04:21:00,21.2,17.4,30.05,ENE,74,1.0,0.0,85,0.00,CLR,,0.00,0.0,WeatherDisplay:10.37,2013-02-22 03:21:00,
2013-02-22 04:26:00,21.3,17.5,30.05,ENE,74,0.0,0.0,85,0.00,CLR,,0.00,0.0,WeatherDisplay:10.37,2013-02-22 03:26:00,
2013-02-22 04:31:00,21.4,17.6,30.05,ENE,74,2.3,2.3,85,0.00,CLR,,0.00,0.0,WeatherDisplay:10.37,2013-02-22 03:31:00,
2013-02-22 04:36:00,21.4,17.6,30.05,ENE,74,2.3,2.3,85,0.00,CLR,,0.00,0.0,WeatherDisplay:10.37,2013-02-22 03:36:00,
2013-02-22 04:41:00,21.5,17.7,30.05,ENE,74,3.5,3.5,85,0.00,CLR,,0.00,0.0,WeatherDisplay:10.37,2013-02-22 03:41:00,
2013-02-22 04:46:00,21.5,17.7,30.05,ENE,74,2.3,2.3,85,0.00,CLR,,0.00,0.0,WeatherDisplay:10.37,2013-02-22 03:46:00,
2013-02-22 04:51:00,21.6,17.8,30.05,NE,43,5.8,5.8,85,0.00,CLR,,0.00,0.0,WeatherDisplay:10.37,2013-02-22 03:51:00,
2013-02-22 04:56:00,21.5,17.7,30.05,NNE,30,5.0,5.0,85,0.00,CLR,,0.00,0.0,WeatherDisplay:10.37,2013-02-22 03:56:00,
2013-02-22 05:01:00,21.2,17.4,30.05,NNE,32,5.8,5.8,85,0.00,CLR,,0.00,0.0,WeatherDisplay:10.37,2013-02-22 04:01:00,
2013-02-22 05:06:00,21.0,17.2,30.05,NE,51,6.0,6.0,85,0.00,CLR,,0.00,0.0,WeatherDisplay:10.37,2013-02-22 04:06:00,
2013-02-22 05:11:00,20.8,17.0,30.05,NNE,29,5.8,5.8,85,0.00,CLR,,0.00,0.0,WeatherDisplay:10.37,2013-02-22 04:11:00,
2013-02-22 05:16:00,20.6,16.8,30.05,NE,37,5.8,5.8,85,0.00,CLR,,0.00,0.0,WeatherDisplay:10.37,2013-02-22 04:16:00,
2013-02-22 05:21:00,20.5,16.7,30.05,NNE,31,5.0,5.0,85,0.00,CLR,,0.00,0.0,WeatherDisplay:10.37,2013-02-22 04:21:00,
2013-02-22 05:26:00,20.4,16.6,30.05,NNE,33,5.0,5.0,85,0.00,CLR,,0.00,0.0,WeatherDisplay:10.37,2013-02-22 04:26:00,
2013-02-22 05:31:00,20.4,16.6,30.05,NNE,33,3.5,3.5,85,0.00,CLR,,0.00,0.0,WeatherDisplay:10.37,2013-02-22 04:31:00,
2013-02-22 05:36:00,20.3,16.5,30.05,NE,35,5.0,5.0,85,0.00,CLR,,0.00,0.0,WeatherDisplay:10.37,2013-02-22 04:36:00,
2013-02-22 05:41:00,20.4,16.6,30.05,NNE,31,5.0,5.0,85,0.00,CLR,,0.00,0.0,WeatherDisplay:10.37,2013-02-22 04:41:00,
2013-02-22 05:46:00,20.4,16.6,30.05,NNE,32,3.5,3.5,85,0.00,CLR,,0.00,0.0,WeatherDisplay:10.37,2013-02-22 04:46:00,
2013-02-22 05:51:00,20.4,16.6,30.05,NNE,30,4.6,4.6,85,0.00,CLR,,0.00,0.0,WeatherDisplay:10.37,2013-02-22 04:51:00,
2013-02-22 05:56:00,20.4,16.6,30.05,NNE,28,4.0,4.0,85,0.00,CLR,,0.00,0.0,WeatherDisplay:10.37,2013-02-22 04:56:00,
2013-02-22 06:00:00,20.4,16.6,30.05,NNE,30,5.0,5.0,85,0.00,CLR,,0.00,0.0,WeatherDisplay:10.37,2013-02-22 05:00:00,
2013-02-22 06:01:00,20.4,16.6,30.05,NNE,30,4.6,4.6,85,0.00,CLR,,0.00,0.0,WeatherDisplay:10.37,2013-02-22 05:01:00,
2013-02-22 06:02:00,20.4,16.6,30.05,NNE,30,5.0,5.0,85,0.00,CLR,,0.00,0.0,WeatherDisplay:10.37,2013-02-22 05:02:00,
2013-02-22 06:04:00,20.5,16.7,30.05,NNE,30,3.5,3.5,85,0.00,CLR,,0.00,0.0,WeatherDisplay:10.37,2013-02-22 05:04:00,
2013-02-22 06:09:00,20.5,16.7,30.05,NE,47,5.0,5.0,85,0.00,CLR,,0.00,0.0,WeatherDisplay:10.37,2013-02-22 05:09:00,
2013-02-22 06:14:00,20.5,16.7,30.05,NE,41,5.0,5.0,85,0.00,CLR,,0.00,0.0,WeatherDisplay:10.37,2013-02-22 05:14:00,
2013-02-22 06:19:00,20.5,16.7,30.05,NE,51,6.9,6.9,85,0.00,CLR,,0.00,0.0,WeatherDisplay:10.37,2013-02-22 05:19:00,
2013-02-22 06:24:00,20.6,16.5,30.05,NE,50,8.1,8.1,84,0.00,CLR,,0.00,0.0,WeatherDisplay:10.37,2013-02-22 05:24:00,
2013-02-22 06:29:00,20.6,16.5,30.05,NE,40,6.0,6.0,84,0.00,CLR,,0.00,0.0,WeatherDisplay:10.37,2013-02-22 05:29:00,
2013-02-22 06:34:00,20.6,16.5,30.05,NE,51,5.8,5.8,84,0.00,OVC,,0.00,0.0,WeatherDisplay:10.37,2013-02-22 05:34:00,
2013-02-22 06:39:00,20.6,16.5,30.05,NE,51,4.6,4.6,84,0.00,OVC,,0.00,0.0,WeatherDisplay:10.37,2013-02-22 05:39:00,
2013-02-22 06:44:00,20.6,16.5,30.05,NE,51,5.8,5.8,84,0.00,OVC,,0.00,0.0,WeatherDisplay:10.37,2013-02-22 05:44:00,
2013-02-22 06:49:00,20.6,16.5,30.05,ENE,58,6.0,6.0,84,0.00,OVC,,0.00,0.0,WeatherDisplay:10.37,2013-02-22 05:49:00,
2013-02-22 06:54:00,20.6,16.5,30.05,NE,44,6.0,6.0,84,0.00,OVC,,0.00,0.0,WeatherDisplay:10.37,2013-02-22 05:54:00,
2013-02-22 06:59:00,20.6,16.5,30.05,ENE,59,8.1,8.1,84,0.00,OVC,,0.00,0.0,WeatherDisplay:10.37,2013-02-22 05:59:00,
2013-02-22 07:04:00,20.5,16.4,30.05,ENE,58,4.0,4.0,84,0.00,OVC,,0.00,0.0,WeatherDisplay:10.37,2013-02-22 06:04:00,
2013-02-22 07:09:00,20.5,16.4,30.05,ENE,59,8.0,8.0,84,0.00,OVC,,0.00,0.0,WeatherDisplay:10.37,2013-02-22 06:09:00,
2013-02-22 07:14:00,20.5,16.4,30.05,NE,48,4.6,4.6,84,0.00,OVC,,0.00,0.0,WeatherDisplay:10.37,2013-02-22 06:14:00,
2013-02-22 07:19:00,20.5,16.4,30.05,NE,51,8.1,8.1,84,0.00,OVC,,0.00,0.0,WeatherDisplay:10.37,2013-02-22 06:19:00,
2013-02-22 07:24:00,20.5,16.4,30.06,NE,44,4.6,4.6,84,0.00,OVC,,0.00,7.0,WeatherDisplay:10.37,2013-02-22 06:24:00,
2013-02-22 07:29:00,20.5,16.4,30.06,NE,49,5.8,5.8,84,0.00,OVC,,0.00,7.0,WeatherDisplay:10.37,2013-02-22 06:29:00,
2013-02-22 07:34:00,20.4,16.3,30.06,NE,39,5.0,5.0,84,0.00,OVC,,0.00,7.0,WeatherDisplay:10.37,2013-02-22 06:34:00,
2013-02-22 07:39:00,20.4,16.3,30.06,NE,45,6.0,6.0,84,0.00,OVC,,0.00,11.0,WeatherDisplay:10.37,2013-02-22 06:39:00,
2013-02-22 07:44:00,20.4,16.3,30.06,NE,40,5.8,5.8,84,0.00,OVC,,0.00,14.0,WeatherDisplay:10.37,2013-02-22 06:44:00,
2013-02-22 07:49:00,20.4,16.3,30.06,NE,40,5.0,5.0,84,0.00,OVC,,0.00,16.0,WeatherDisplay:10.37,2013-02-22 06:49:00,
2013-02-22 07:54:00,20.4,16.3,30.06,NE,40,6.0,6.0,84,0.00,OVC,,0.00,19.0,WeatherDisplay:10.37,2013-02-22 06:54:00,
2013-02-22 07:59:00,20.1,16.0,30.06,NNE,24,9.2,9.2,84,0.00,OVC,,0.00,25.0,WeatherDisplay:10.37,2013-02-22 06:59:00,
2013-02-22 08:04:00,20.1,16.0,30.06,NNE,29,5.8,5.8,84,0.00,OVC,,0.00,28.0,WeatherDisplay:10.37,2013-02-22 07:04:00,
2013-02-22 08:09:00,20.1,16.0,30.06,NNE,22,5.0,5.0,84,0.00,OVC,,0.00,35.0,WeatherDisplay:10.37,2013-02-22 07:09:00,
2013-02-22 08:14:00,20.1,16.0,30.06,NNE,28,4.6,4.6,84,0.00,OVC,,0.00,49.0,WeatherDisplay:10.37,2013-02-22 07:14:00,
2013-02-22 08:19:00,20.1,16.0,30.06,NE,53,5.8,5.8,84,0.00,OVC,,0.00,56.0,WeatherDisplay:10.37,2013-02-22 07:19:00,
2013-02-22 08:24:00,20.3,16.2,30.06,NNE,30,4.6,4.6,84,0.00,OVC,,0.00,69.0,WeatherDisplay:10.37,2013-02-22 07:24:00,
2013-02-22 08:29:00,20.4,16.3,30.05,NNE,31,4.6,4.6,84,0.00,BKN,,0.00,77.0,WeatherDisplay:10.37,2013-02-22 07:29:00,
2013-02-22 08:34:00,20.6,16.5,30.05,NNE,32,8.1,8.1,84,0.00,OVC,,0.00,76.0,WeatherDisplay:10.37,2013-02-22 07:34:00,
2013-02-22 08:39:00,20.7,16.6,30.05,NNE,29,6.9,6.9,84,0.00,SCT,,0.00,144.0,WeatherDisplay:10.37,2013-02-22 07:39:00,
2013-02-22 08:44:00,21.0,16.6,30.05,NNE,19,7.0,7.0,83,0.00,FEW,,0.00,188.0,WeatherDisplay:10.37,2013-02-22 07:44:00,
2013-02-22 08:49:00,21.5,17.1,30.05,North,9,6.0,6.0,83,0.00,FEW,,0.00,209.0,WeatherDisplay:10.37,2013-02-22 07:49:00,
2013-02-22 08:54:00,22.0,17.3,30.04,NNE,13,5.0,5.0,82,0.00,FEW,,0.00,216.0,WeatherDisplay:10.37,2013-02-22 07:54:00,
2013-02-22 08:59:00,22.2,17.3,30.04,NNE,21,5.0,5.0,81,0.00,BKN,,0.00,134.0,WeatherDisplay:10.37,2013-02-22 07:59:00,
2013-02-22 09:04:00,22.2,17.3,30.04,NNW,347,7.0,7.0,81,0.00,OVC,,0.00,104.0,WeatherDisplay:10.37,2013-02-22 08:04:00,
2013-02-22 09:09:00,22.1,17.2,30.04,NE,47,6.0,6.0,81,0.00,BKN,,0.00,135.0,WeatherDisplay:10.37,2013-02-22 08:09:00,
2013-02-22 09:14:00,22.2,17.0,30.04,NE,52,5.0,5.0,80,0.00,BKN,,0.00,139.0,WeatherDisplay:10.37,2013-02-22 08:14:00,
2013-02-22 09:19:00,22.3,17.1,30.04,NNE,30,5.8,5.8,80,0.00,BKN,,0.00,160.0,WeatherDisplay:10.37,2013-02-22 08:19:00,
2013-02-22 09:24:00,22.6,17.6,30.04,NNE,21,7.0,7.0,81,0.00,BKN,,0.00,160.0,WeatherDisplay:10.37,2013-02-22 08:24:00,
2013-02-22 09:29:00,22.4,17.2,30.04,NNE,28,6.0,6.0,80,0.00,BKN,,0.00,151.0,WeatherDisplay:10.37,2013-02-22 08:29:00,
2013-02-22 09:34:00,22.4,17.2,30.04,NNE,25,6.9,6.9,80,0.00,OVC,,0.00,116.0,WeatherDisplay:10.37,2013-02-22 08:34:00,
2013-02-22 09:39:00,22.5,17.3,30.04,North,10,6.9,6.9,80,0.00,OVC,,0.00,104.0,WeatherDisplay:10.37,2013-02-22 08:39:00,
2013-02-22 09:44:00,22.5,17.0,30.04,NW,322,8.0,8.0,79,0.00,OVC,,0.00,121.0,WeatherDisplay:10.37,2013-02-22 08:44:00,
2013-02-22 09:49:00,22.6,17.1,30.04,NE,42,5.8,5.8,79,0.00,OVC,,0.00,155.0,WeatherDisplay:10.37,2013-02-22 08:49:00,
2013-02-22 09:54:00,22.8,17.3,30.04,NNE,25,7.0,7.0,79,0.00,BKN,,0.00,167.0,WeatherDisplay:10.37,2013-02-22 08:54:00,
2013-02-22 09:59:00,22.8,17.0,30.04,NE,47,5.0,5.0,78,0.00,BKN,,0.00,163.0,WeatherDisplay:10.37,2013-02-22 08:59:00,
2013-02-22 10:04:00,23.0,17.2,30.04,NE,38,3.5,3.5,78,0.00,BKN,,0.00,193.0,WeatherDisplay:10.37,2013-02-22 09:04:00,
2013-02-22 10:09:00,23.3,17.7,30.04,ENE,61,10.0,10.0,79,0.00,BKN,,0.00,229.0,WeatherDisplay:10.37,2013-02-22 09:09:00,
2013-02-22 10:14:00,23.4,17.6,30.04,NE,46,4.0,4.0,78,0.00,BKN,,0.00,204.0,WeatherDisplay:10.37,2013-02-22 09:14:00,
2013-02-22 10:19:00,23.4,17.3,30.04,NE,46,9.2,9.2,77,0.00,BKN,,0.00,199.0,WeatherDisplay:10.37,2013-02-22 09:19:00,
2013-02-22 10:24:00,23.2,17.1,30.04,NE,50,11.5,11.5,77,0.00,BKN,,0.00,197.0,WeatherDisplay:10.37,2013-02-22 09:24:00,
2013-02-22 10:29:00,23.4,17.6,30.03,NE,40,11.0,11.0,78,0.00,BKN,,0.00,204.0,WeatherDisplay:10.37,2013-02-22 09:29:00,
2013-02-22 10:34:00,23.3,17.2,30.03,NE,48,10.4,10.4,77,0.00,BKN,,0.00,185.0,WeatherDisplay:10.37,2013-02-22 09:34:00,
2013-02-22 10:40:00,23.7,17.8,30.03,NNE,30,6.0,6.0,78,0.00,BKN,,0.00,193.0,WeatherDisplay:10.37,2013-02-22 09:40:00,
2013-02-22 10:45:00,24.1,18.2,30.03,North,355,6.0,6.0,78,0.00,BKN,,0.00,202.0,WeatherDisplay:10.37,2013-02-22 09:45:00,
2013-02-22 10:50:00,24.2,17.7,30.03,NNE,26,4.6,4.6,76,0.00,BKN,,0.00,183.0,WeatherDisplay:10.37,2013-02-22 09:50:00,
2013-02-22 10:55:00,24.2,17.7,30.03,NNE,21,8.1,8.1,76,0.00,OVC,,0.00,179.0,WeatherDisplay:10.37,2013-02-22 09:55:00,
2013-02-22 11:00:00,24.4,17.9,30.03,NE,34,5.0,5.0,76,0.00,OVC,,0.00,183.0,WeatherDisplay:10.37,2013-02-22 10:00:00,
2013-02-22 11:05:00,24.6,18.1,30.03,NNE,19,8.1,8.1,76,0.00,OVC,,0.00,174.0,WeatherDisplay:10.37,2013-02-22 10:05:00,
2013-02-22 11:10:00,24.4,17.9,30.03,NNE,19,6.9,6.9,76,0.00,OVC,,0.00,155.0,WeatherDisplay:10.37,2013-02-22 10:10:00,
2013-02-22 11:15:00,24.4,17.9,30.03,North,360,5.8,5.8,76,0.00,OVC,,0.00,153.0,WeatherDisplay:10.37,2013-02-22 10:15:00,
2013-02-22 11:20:00,24.5,18.0,30.02,NNE,26,10.0,10.0,76,0.00,OVC,,0.00,155.0,WeatherDisplay:10.37,2013-02-22 10:20:00,
2013-02-22 11:25:00,24.4,17.9,30.02,NNW,327,6.9,6.9,76,0.00,OVC,,0.00,171.0,WeatherDisplay:10.37,2013-02-22 10:25:00,
2013-02-22 11:30:00,24.6,18.1,30.02,North,350,9.2,9.2,76,0.00,OVC,,0.00,172.0,WeatherDisplay:10.37,2013-02-22 10:30:00,
2013-02-22 11:35:00,24.8,18.6,30.01,North,9,6.9,6.9,77,0.00,OVC,,0.00,185.0,WeatherDisplay:10.37,2013-02-22 10:35:00,
2013-02-22 11:40:00,25.0,18.5,30.01,North,350,8.1,8.1,76,0.00,OVC,,0.00,176.0,WeatherDisplay:10.37,2013-02-22 10:40:00,
2013-02-22 11:45:00,25.3,19.1,30.01,NNW,348,5.0,5.0,77,0.00,OVC,,0.00,169.0,WeatherDisplay:10.37,2013-02-22 10:45:00,
2013-02-22 11:50:00,25.4,18.9,30.01,North,360,6.9,6.9,76,0.00,OVC,,0.00,165.0,WeatherDisplay:10.37,2013-02-22 10:50:00,
2013-02-22 11:55:00,25.4,19.2,30.01,North,355,7.0,7.0,77,0.00,OVC,,0.00,171.0,WeatherDisplay:10.37,2013-02-22 10:55:00,
2013-02-22 12:00:00,25.5,19.0,30.00,North,360,8.1,8.1,76,0.00,OVC,,0.00,183.0,WeatherDisplay:10.37,2013-02-22 11:00:00,
2013-02-22 12:05:00,25.5,19.0,30.00,NNE,24,8.1,8.1,76,0.00,OVC,,0.00,169.0,WeatherDisplay:10.37,2013-02-22 11:05:00,
2013-02-22 12:10:00,25.6,19.1,30.00,NNW,348,9.2,9.2,76,0.00,OVC,,0.00,162.0,WeatherDisplay:10.37,2013-02-22 11:10:00,
2013-02-22 12:15:00,25.5,18.4,30.00,NNE,13,8.0,8.0,74,0.00,OVC,,0.00,174.0,WeatherDisplay:10.37,2013-02-22 11:15:00,
2013-02-22 12:20:00,25.5,18.7,29.99,North,9,5.8,5.8,75,0.00,OVC,,0.00,181.0,WeatherDisplay:10.37,2013-02-22 11:20:00,
2013-02-22 12:25:00,25.7,18.9,29.99,NNW,348,7.0,7.0,75,0.00,OVC,,0.00,174.0,WeatherDisplay:10.37,2013-02-22 11:25:00,
2013-02-22 12:30:00,25.7,18.9,29.99,NNE,23,11.5,11.5,75,0.00,OVC,,0.00,181.0,WeatherDisplay:10.37,2013-02-22 11:30:00,
2013-02-22 12:35:00,25.7,19.2,29.99,NNE,27,10.4,10.4,76,0.00,BKN,,0.00,214.0,WeatherDisplay:10.37,2013-02-22 11:35:00,
2013-02-22 12:40:00,25.9,19.4,29.98,NNE,17,10.0,10.0,76,0.00,BKN,,0.00,223.0,WeatherDisplay:10.37,2013-02-22 11:40:00,
2013-02-22 12:45:00,26.0,19.5,29.98,NE,36,6.9,6.9,76,0.00,BKN,,0.00,232.0,WeatherDisplay:10.37,2013-02-22 11:45:00,
2013-02-22 12:50:00,26.1,19.9,29.98,North,9,6.0,6.0,77,0.00,BKN,,0.00,251.0,WeatherDisplay:10.37,2013-02-22 11:50:00,
2013-02-22 12:55:00,26.4,20.5,29.97,NE,46,6.0,6.0,78,0.00,BKN,,0.00,264.0,WeatherDisplay:10.37,2013-02-22 11:55:00,
2013-02-22 13:00:00,26.7,20.8,29.97,NNE,32,8.1,8.1,78,0.00,BKN,,0.00,250.0,WeatherDisplay:10.37,2013-02-22 12:00:00,
2013-02-22 13:06:00,26.8,20.9,29.97,NNE,23,7.0,7.0,78,0.00,BKN,,0.00,278.0,WeatherDisplay:10.37,2013-02-22 12:06:00,
2013-02-22 13:11:00,26.8,20.9,29.97,North,9,7.0,7.0,78,0.00,BKN,,0.00,272.0,WeatherDisplay:10.37,2013-02-22 12:11:00,
2013-02-22 13:16:00,26.8,20.9,29.97,North,9,10.0,10.0,78,0.00,BKN,,0.00,264.0,WeatherDisplay:10.37,2013-02-22 12:16:00,
2013-02-22 13:21:00,26.9,21.0,29.96,NNE,12,6.0,6.0,78,0.00,BKN,,0.00,271.0,WeatherDisplay:10.37,2013-02-22 12:21:00,
2013-02-22 13:26:00,27.2,21.2,29.96,NNE,13,9.2,9.2,78,0.00,BKN,,0.00,237.0,WeatherDisplay:10.37,2013-02-22 12:26:00,
2013-02-22 13:31:00,27.1,21.2,29.96,North,9,9.2,9.2,78,0.00,SCT,,0.00,271.0,WeatherDisplay:10.37,2013-02-22 12:31:00,
2013-02-22 13:36:00,27.3,21.6,29.96,NNE,13,10.4,10.4,79,0.00,BKN,,0.00,229.0,WeatherDisplay:10.37,2013-02-22 12:36:00,
2013-02-22 13:41:00,27.1,21.7,29.95,North,351,8.1,8.1,80,0.00,BKN,,0.00,248.0,WeatherDisplay:10.37,2013-02-22 12:41:00,
2013-02-22 13:46:00,27.0,21.7,29.95,NNW,338,9.2,9.2,80,0.00,BKN,,0.00,243.0,WeatherDisplay:10.37,2013-02-22 12:46:00,
2013-02-22 13:51:00,27.3,21.9,29.95,NNW,338,8.1,8.1,80,0.00,BKN,,0.00,253.0,WeatherDisplay:10.37,2013-02-22 12:51:00,
2013-02-22 13:56:00,27.3,21.9,29.95,NNW,330,8.1,8.1,80,0.00,BKN,,0.00,213.0,WeatherDisplay:10.37,2013-02-22 12:56:00,
2013-02-22 14:01:00,27.5,22.4,29.94,North,349,10.4,10.4,81,0.00,BKN,,0.00,216.0,WeatherDisplay:10.37,2013-02-22 13:01:00,
2013-02-22 14:06:00,27.5,22.1,29.94,North,360,4.0,4.0,80,0.00,BKN,,0.00,179.0,WeatherDisplay:10.37,2013-02-22 13:06:00,
2013-02-22 14:11:00,27.4,22.0,29.94,NNW,345,6.0,6.0,80,0.00,BKN,,0.00,178.0,WeatherDisplay:10.37,2013-02-22 13:11:00,
2013-02-22 14:16:00,27.2,21.8,29.93,NNW,342,6.9,6.9,80,0.00,BKN,,0.00,192.0,WeatherDisplay:10.37,2013-02-22 13:16:00,
2013-02-22 14:21:00,27.4,22.0,29.93,NW,311,9.2,9.2,80,0.00,BKN,,0.00,192.0,WeatherDisplay:10.37,2013-02-22 13:21:00,
2013-02-22 14:26:00,27.4,22.3,29.93,North,360,8.1,8.1,81,0.00,BKN,,0.00,185.0,WeatherDisplay:10.37,2013-02-22 13:26:00,
2013-02-22 14:31:00,27.4,22.3,29.93,NNE,13,7.0,7.0,81,0.00,BKN,,0.00,185.0,WeatherDisplay:10.37,2013-02-22 13:31:00,
2013-02-22 14:36:00,27.4,22.0,29.93,NNW,334,9.0,9.0,80,0.00,BKN,,0.00,183.0,WeatherDisplay:10.37,2013-02-22 13:36:00,
2013-02-22 14:41:00,27.8,22.4,29.93,NNW,346,7.0,7.0,80,0.00,BKN,,0.00,174.0,WeatherDisplay:10.37,2013-02-22 13:41:00,
2013-02-22 14:46:00,27.6,22.2,29.93,North,350,8.1,8.1,80,0.00,OVC,,0.00,121.0,WeatherDisplay:10.37,2013-02-22 13:46:00,
2013-02-22 14:51:00,27.5,22.4,29.92,North,360,6.9,6.9,81,0.00,BKN,,0.00,149.0,WeatherDisplay:10.37,2013-02-22 13:51:00,
2013-02-22 14:56:00,27.2,22.1,29.92,North,360,9.2,9.2,81,0.00,BKN,,0.00,146.0,WeatherDisplay:10.37,2013-02-22 13:56:00,
2013-02-22 15:01:00,27.1,22.0,29.92,North,355,5.8,5.8,81,0.00,OVC,,0.00,116.0,WeatherDisplay:10.37,2013-02-22 14:01:00,
2013-02-22 15:06:00,27.1,22.3,29.92,North,355,7.0,7.0,82,0.00,OVC,,0.00,100.0,WeatherDisplay:10.37,2013-02-22 14:06:00,
2013-02-22 15:11:00,26.8,22.0,29.92,NNE,21,8.1,8.1,82,0.00,OVC,,0.00,90.0,WeatherDisplay:10.37,2013-02-22 14:11:00,
2013-02-22 15:16:00,26.8,22.3,29.92,North,9,8.1,8.1,83,0.00,OVC,,0.00,91.0,WeatherDisplay:10.37,2013-02-22 14:16:00,
2013-02-22 15:21:00,26.8,22.3,29.92,North,9,6.0,6.0,83,0.00,OVC,,0.00,97.0,WeatherDisplay:10.37,2013-02-22 14:21:00,
2013-02-22 15:26:00,26.8,22.6,29.92,North,360,8.1,8.1,84,0.00,OVC,,0.00,91.0,WeatherDisplay:10.37,2013-02-22 14:26:00,
2013-02-22 15:31:00,26.8,22.6,29.92,North,349,6.0,6.0,84,0.00,OVC,,0.00,88.0,WeatherDisplay:10.37,2013-02-22 14:31:00,
2013-02-22 15:36:00,26.7,22.5,29.91,North,351,5.0,5.0,84,0.00,OVC,,0.00,74.0,WeatherDisplay:10.37,2013-02-22 14:36:00,
2013-02-22 15:41:00,26.6,22.4,29.91,NNW,340,6.0,6.0,84,0.00,OVC,,0.00,65.0,WeatherDisplay:10.37,2013-02-22 14:41:00,
2013-02-22 15:46:00,26.6,22.7,29.91,North,355,5.8,5.8,85,0.00,OVC,,0.00,60.0,WeatherDisplay:10.37,2013-02-22 14:46:00,
2013-02-22 15:51:00,26.4,22.5,29.91,NNW,340,4.6,4.6,85,0.00,OVC,,0.00,51.0,WeatherDisplay:10.37,2013-02-22 14:51:00,
2013-02-22 15:56:00,26.3,22.4,29.91,NNW,333,5.0,5.0,85,0.00,OVC,,0.00,51.0,WeatherDisplay:10.37,2013-02-22 14:56:00,
2013-02-22 16:01:00,26.3,22.4,29.92,NNW,346,8.1,8.1,85,0.00,OVC,,0.00,47.0,WeatherDisplay:10.37,2013-02-22 15:01:00,
2013-02-22 16:06:00,26.3,22.4,29.92,NNW,346,7.0,7.0,85,0.00,OVC,,0.00,37.0,WeatherDisplay:10.37,2013-02-22 15:06:00,
2013-02-22 16:11:00,26.2,22.3,29.92,NNW,342,5.0,5.0,85,0.00,OVC,,0.01,33.0,WeatherDisplay:10.37,2013-02-22 15:11:00,
2013-02-22 16:16:00,26.1,22.2,29.92,NNW,347,4.0,4.0,85,0.01,RA,,0.01,28.0,WeatherDisplay:10.37,2013-02-22 15:16:00,
2013-02-22 16:21:00,26.0,22.1,29.92,North,360,5.0,5.0,85,0.01,RA,,0.01,25.0,WeatherDisplay:10.37,2013-02-22 15:21:00,
2013-02-22 16:26:00,25.9,22.0,29.91,NNW,344,5.8,5.8,85,0.02,RA,,0.02,23.0,WeatherDisplay:10.37,2013-02-22 15:26:00,
2013-02-22 16:31:00,25.8,21.9,29.92,North,355,5.0,5.0,85,0.02,RA,,0.02,21.0,WeatherDisplay:10.37,2013-02-22 15:31:00,
2013-02-22 16:36:00,25.8,21.9,29.92,NNW,346,7.0,7.0,85,0.02,OVC,,0.02,18.0,WeatherDisplay:10.37,2013-02-22 15:36:00,
2013-02-22 16:41:00,25.6,22.0,29.91,North,355,6.9,6.9,86,0.02,OVC,,0.02,16.0,WeatherDisplay:10.37,2013-02-22 15:41:00,
2013-02-22 16:46:00,25.3,21.4,29.91,NNW,333,6.0,6.0,85,0.02,OVC,,0.02,14.0,WeatherDisplay:10.37,2013-02-22 15:46:00,
2013-02-22 16:51:00,25.3,21.4,29.91,North,9,6.9,6.9,85,0.02,OVC,,0.02,11.0,WeatherDisplay:10.37,2013-02-22 15:51:00,
2013-02-22 16:56:00,25.1,21.2,29.91,NNW,329,5.8,5.8,85,0.02,OVC,,0.02,9.0,WeatherDisplay:10.37,2013-02-22 15:56:00,
2013-02-22 17:01:00,25.1,21.2,29.91,NNW,343,8.1,8.1,85,0.02,OVC,,0.02,7.0,WeatherDisplay:10.37,2013-02-22 16:01:00,
2013-02-22 17:06:00,25.1,21.2,29.91,NNE,13,5.0,5.0,85,0.02,OVC,,0.02,7.0,WeatherDisplay:10.37,2013-02-22 16:06:00,
2013-02-22 17:11:00,24.9,21.3,29.91,North,355,5.0,5.0,86,0.02,RA,,0.02,5.0,WeatherDisplay:10.37,2013-02-22 16:11:00,
2013-02-22 17:16:00,24.9,21.3,29.91,North,360,5.8,5.8,86,0.02,RA,,0.02,0.0,WeatherDisplay:10.37,2013-02-22 16:16:00,
2013-02-22 17:21:00,24.8,21.2,29.91,North,360,5.0,5.0,86,0.02,OVC,,0.02,0.0,WeatherDisplay:10.37,2013-02-22 16:21:00,
2013-02-22 17:26:00,24.8,21.2,29.91,North,349,7.0,7.0,86,0.02,RA,,0.03,0.0,WeatherDisplay:10.37,2013-02-22 16:26:00,
2013-02-22 17:31:00,24.7,21.1,29.91,North,360,5.8,5.8,86,0.02,RA,,0.03,0.0,WeatherDisplay:10.37,2013-02-22 16:31:00,
2013-02-22 17:36:00,24.8,21.2,29.91,NNW,343,4.0,4.0,86,0.02,OVC,,0.03,0.0,WeatherDisplay:10.37,2013-02-22 16:36:00,
2013-02-22 17:41:00,24.7,21.1,29.92,NNW,346,5.0,5.0,86,0.02,OVC,,0.03,0.0,WeatherDisplay:10.37,2013-02-22 16:41:00,
2013-02-22 17:46:00,24.7,21.1,29.92,NNW,344,4.0,4.0,86,0.02,OVC,,0.03,0.0,WeatherDisplay:10.37,2013-02-22 16:46:00,
2013-02-22 17:51:00,24.7,21.1,29.92,NNW,344,4.0,4.0,86,0.02,OVC,,0.03,0.0,WeatherDisplay:10.37,2013-02-22 16:51:00,
2013-02-22 17:56:00,24.6,21.0,29.92,NNW,344,3.5,3.5,86,0.02,OVC,,0.03,0.0,WeatherDisplay:10.37,2013-02-22 16:56:00,
2013-02-22 18:01:00,24.6,21.0,29.92,NNW,344,4.0,4.0,86,0.02,RA,,0.04,0.0,WeatherDisplay:10.37,2013-02-22 17:01:00,
2013-02-22 18:06:00,24.6,21.0,29.92,NNW,344,5.0,5.0,86,0.02,RA,,0.04,0.0,WeatherDisplay:10.37,2013-02-22 17:06:00,
2013-02-22 18:11:00,24.7,21.1,29.92,NNW,344,4.6,4.6,86,0.02,RA,,0.05,0.0,WeatherDisplay:10.37,2013-02-22 17:11:00,
2013-02-22 18:16:00,24.7,21.1,29.92,NNW,344,5.0,5.0,86,0.02,RA,,0.05,0.0,WeatherDisplay:10.37,2013-02-22 17:16:00,
2013-02-22 18:21:00,24.7,21.1,29.92,NNW,344,4.6,4.6,86,0.02,,,0.05,0.0,WeatherDisplay:10.37,2013-02-22 17:21:00,
2013-02-22 18:26:00,24.7,21.1,29.92,NNW,344,3.5,3.5,86,0.02,CLR,,0.05,0.0,WeatherDisplay:10.37,2013-02-22 17:26:00,
2013-02-22 18:31:00,24.7,21.1,29.93,NNW,344,4.0,4.0,86,0.02,CLR,,0.05,0.0,WeatherDisplay:10.37,2013-02-22 17:31:00,
2013-02-22 18:36:00,24.6,20.7,29.92,NNW,344,5.8,5.8,85,0.02,CLR,,0.05,0.0,WeatherDisplay:10.37,2013-02-22 17:36:00,
2013-02-22 18:41:00,24.6,21.0,29.92,NNW,344,4.6,4.6,86,0.02,CLR,,0.05,0.0,WeatherDisplay:10.37,2013-02-22 17:41:00,
2013-02-22 18:46:00,24.6,21.0,29.93,NNW,344,3.5,3.5,86,0.02,CLR,,0.05,0.0,WeatherDisplay:10.37,2013-02-22 17:46:00,
2013-02-22 18:51:00,24.6,21.0,29.93,NNW,344,3.5,3.5,86,0.02,CLR,,0.05,0.0,WeatherDisplay:10.37,2013-02-22 17:51:00,
2013-02-22 18:56:00,24.6,21.0,29.93,NNW,344,3.5,3.5,86,0.02,RA,,0.06,0.0,WeatherDisplay:10.37,2013-02-22 17:56:00,
2013-02-22 19:01:00,24.7,21.1,29.93,North,11,3.5,3.5,86,0.02,RA,,0.06,0.0,WeatherDisplay:10.37,2013-02-22 18:01:00,
2013-02-22 19:06:00,24.7,21.1,29.93,North,11,3.5,3.5,86,0.02,CLR,,0.06,0.0,WeatherDisplay:10.37,2013-02-22 18:06:00,
2013-02-22 19:11:00,24.7,21.1,29.93,North,11,3.5,3.5,86,0.01,CLR,,0.06,0.0,WeatherDisplay:10.37,2013-02-22 18:11:00,
2013-02-22 19:16:00,24.7,21.1,29.93,North,11,3.5,3.5,86,0.01,CLR,,0.06,0.0,WeatherDisplay:10.37,2013-02-22 18:16:00,
2013-02-22 19:21:00,24.7,21.1,29.93,NNE,19,3.5,3.5,86,0.01,CLR,,0.06,0.0,WeatherDisplay:10.37,2013-02-22 18:21:00,
2013-02-22 19:26:00,24.7,21.1,29.93,North,9,4.0,4.0,86,0.01,CLR,,0.06,0.0,WeatherDisplay:10.37,2013-02-22 18:26:00,
2013-02-22 19:31:00,24.7,21.1,29.93,North,10,3.5,3.5,86,0.02,RA,,0.06,0.0,WeatherDisplay:10.37,2013-02-22 18:31:00,
2013-02-22 19:36:00,24.7,21.1,29.92,North,9,3.5,3.5,86,0.02,RA,,0.06,0.0,WeatherDisplay:10.37,2013-02-22 18:36:00,
2013-02-22 19:41:00,24.7,21.1,29.93,North,9,3.5,3.5,86,0.02,,,0.06,0.0,WeatherDisplay:10.37,2013-02-22 18:41:00,
2013-02-22 19:46:00,24.6,21.0,29.92,North,9,3.5,3.5,86,0.02,CLR,,0.06,0.0,WeatherDisplay:10.37,2013-02-22 18:46:00,
2013-02-22 19:51:00,24.7,21.1,29.92,North,9,3.5,3.5,86,0.02,CLR,,0.06,0.0,WeatherDisplay:10.37,2013-02-22 18:51:00,
2013-02-22 19:56:00,24.6,21.0,29.93,North,9,3.5,3.5,86,0.01,CLR,,0.06,0.0,WeatherDisplay:10.37,2013-02-22 18:56:00,
2013-02-22 20:01:00,24.6,21.0,29.92,North,9,2.3,2.3,86,0.01,CLR,,0.06,0.0,WeatherDisplay:10.37,2013-02-22 19:01:00,
2013-02-22 20:06:00,24.6,21.0,29.92,North,9,2.3,2.3,86,0.01,CLR,,0.06,0.0,WeatherDisplay:10.37,2013-02-22 19:06:00,
2013-02-22 20:11:00,24.5,20.9,29.92,North,9,3.5,3.5,86,0.01,CLR,,0.06,0.0,WeatherDisplay:10.37,2013-02-22 19:11:00,
2013-02-22 20:16:00,24.4,20.8,29.92,North,9,3.5,3.5,86,0.01,CLR,,0.06,0.0,WeatherDisplay:10.37,2013-02-22 19:16:00,
2013-02-22 20:21:00,24.4,20.8,29.92,North,9,3.5,3.5,86,0.01,CLR,,0.06,0.0,WeatherDisplay:10.37,2013-02-22 19:21:00,
2013-02-22 20:26:00,24.4,20.8,29.92,North,9,3.5,3.5,86,0.01,CLR,,0.06,0.0,WeatherDisplay:10.37,2013-02-22 19:26:00,
2013-02-22 20:31:00,24.4,20.8,29.92,NNW,346,4.0,4.0,86,0.01,RA,,0.07,0.0,WeatherDisplay:10.37,2013-02-22 19:31:00,
2013-02-22 20:36:00,24.4,20.8,29.92,NNW,346,3.5,3.5,86,0.01,RA,,0.07,0.0,WeatherDisplay:10.37,2013-02-22 19:36:00,
2013-02-22 20:41:00,24.4,20.8,29.92,NNW,346,3.5,3.5,86,0.01,CLR,,0.07,0.0,WeatherDisplay:10.37,2013-02-22 19:41:00,
2013-02-22 20:46:00,24.5,20.9,29.92,NNW,346,3.5,3.5,86,0.01,CLR,,0.07,0.0,WeatherDisplay:10.37,2013-02-22 19:46:00,
2013-02-22 20:51:00,24.5,20.9,29.92,NNW,346,2.3,2.3,86,0.01,CLR,,0.07,0.0,WeatherDisplay:10.37,2013-02-22 19:51:00,
2013-02-22 20:56:00,24.4,20.8,29.92,NNW,346,3.5,3.5,86,0.01,CLR,,0.07,0.0,WeatherDisplay:10.37,2013-02-22 19:56:00,
2013-02-22 21:01:00,24.4,20.8,29.92,NNW,346,3.5,3.5,86,0.01,CLR,,0.07,0.0,WeatherDisplay:10.37,2013-02-22 20:01:00,
2013-02-22 21:06:00,24.4,20.8,29.92,NNW,346,3.5,3.5,86,0.01,CLR,,0.07,0.0,WeatherDisplay:10.37,2013-02-22 20:06:00,
2013-02-22 21:11:00,24.4,20.8,29.92,NNW,346,3.5,3.5,86,0.01,CLR,,0.07,0.0,WeatherDisplay:10.37,2013-02-22 20:11:00,
2013-02-22 21:16:00,24.4,20.8,29.92,NNW,346,3.5,3.5,86,0.01,CLR,,0.07,0.0,WeatherDisplay:10.37,2013-02-22 20:16:00,
2013-02-22 21:21:00,24.3,20.7,29.92,NNW,346,3.5,3.5,86,0.02,RA,,0.08,0.0,WeatherDisplay:10.37,2013-02-22 20:21:00,
2013-02-22 21:26:00,24.3,20.7,29.92,NNW,346,3.5,3.5,86,0.02,RA,,0.08,0.0,WeatherDisplay:10.37,2013-02-22 20:26:00,
2013-02-22 21:31:00,24.4,20.8,29.92,NNW,346,2.3,2.3,86,0.01,,,0.08,0.0,WeatherDisplay:10.37,2013-02-22 20:31:00,
2013-02-22 21:36:00,24.3,20.7,29.92,NNW,346,3.5,3.5,86,0.01,CLR,,0.08,0.0,WeatherDisplay:10.37,2013-02-22 20:36:00,
2013-02-22 21:41:00,24.3,20.7,29.92,NNW,346,3.5,3.5,86,0.01,CLR,,0.08,0.0,WeatherDisplay:10.37,2013-02-22 20:41:00,
2013-02-22 21:46:00,24.3,20.7,29.92,NNW,346,3.5,3.5,86,0.01,CLR,,0.08,0.0,WeatherDisplay:10.37,2013-02-22 20:46:00,
2013-02-22 21:51:00,24.3,20.7,29.92,NNW,348,3.5,3.5,86,0.01,CLR,,0.08,0.0,WeatherDisplay:10.37,2013-02-22 20:51:00,
2013-02-22 21:56:00,24.3,20.7,29.92,NNW,348,2.3,2.3,86,0.01,CLR,,0.08,0.0,WeatherDisplay:10.37,2013-02-22 20:56:00,
2013-02-22 22:01:00,24.2,20.6,29.92,NNW,348,3.5,3.5,86,0.01,CLR,,0.08,0.0,WeatherDisplay:10.37,2013-02-22 21:01:00,
2013-02-22 22:06:00,24.2,20.6,29.92,NNW,348,3.0,3.0,86,0.01,CLR,,0.08,0.0,WeatherDisplay:10.37,2013-02-22 21:06:00,
2013-02-22 22:11:00,24.2,20.6,29.92,NNW,348,3.5,3.5,86,0.01,CLR,,0.08,0.0,WeatherDisplay:10.37,2013-02-22 21:11:00,
2013-02-22 22:16:00,24.2,20.6,29.92,NNW,348,3.5,3.5,86,0.01,CLR,,0.08,0.0,WeatherDisplay:10.37,2013-02-22 21:16:00,
2013-02-22 22:21:00,24.2,20.6,29.92,NNW,348,3.5,3.5,86,0.00,CLR,,0.08,0.0,WeatherDisplay:10.37,2013-02-22 21:21:00,
2013-02-22 22:26:00,24.1,20.5,29.91,NNW,348,2.3,2.3,86,0.00,CLR,,0.08,0.0,WeatherDisplay:10.37,2013-02-22 21:26:00,
2013-02-22 22:31:00,23.9,20.3,29.92,NNW,348,3.5,3.5,86,0.01,RA,,0.09,0.0,WeatherDisplay:10.37,2013-02-22 21:31:00,
2013-02-22 22:36:00,23.8,20.2,29.91,NNW,348,2.3,2.3,86,0.01,RA,,0.09,0.0,WeatherDisplay:10.37,2013-02-22 21:36:00,
2013-02-22 22:41:00,23.7,20.1,29.91,NNW,348,2.3,2.3,86,0.01,CLR,,0.09,0.0,WeatherDisplay:10.37,2013-02-22 21:41:00,
2013-02-22 22:46:00,23.7,20.1,29.91,NNW,348,2.3,2.3,86,0.01,CLR,,0.09,0.0,WeatherDisplay:10.37,2013-02-22 21:46:00,
2013-02-22 22:51:00,23.8,20.2,29.91,NNW,348,3.0,3.0,86,0.01,CLR,,0.09,0.0,WeatherDisplay:10.37,2013-02-22 21:51:00,
2013-02-22 22:56:00,23.8,20.2,29.91,NNW,348,2.3,2.3,86,0.01,CLR,,0.09,0.0,WeatherDisplay:10.37,2013-02-22 21:56:00,
2013-02-22 23:01:00,23.8,20.2,29.91,NNW,348,3.5,3.5,86,0.01,CLR,,0.09,0.0,WeatherDisplay:10.37,2013-02-22 22:01:00,
2013-02-22 23:06:00,23.8,20.2,29.91,NNW,348,3.5,3.5,86,0.01,CLR,,0.09,0.0,WeatherDisplay:10.37,2013-02-22 22:06:00,
2013-02-22 23:11:00,23.8,20.2,29.91,NNW,348,3.5,3.5,86,0.01,CLR,,0.09,0.0,WeatherDisplay:10.37,2013-02-22 22:11:00,
2013-02-22 23:16:00,23.8,20.2,29.91,NNW,348,3.5,3.5,86,0.01,CLR,,0.09,0.0,WeatherDisplay:10.37,2013-02-22 22:16:00,
2013-02-22 23:21:00,23.8,20.2,29.91,NNW,348,3.5,3.5,86,0.01,CLR,,0.09,0.0,WeatherDisplay:10.37,2013-02-22 22:21:00,
2013-02-22 23:26:00,23.8,20.2,29.91,NNW,348,3.5,3.5,86,0.01,CLR,,0.09,0.0,WeatherDisplay:10.37,2013-02-22 22:26:00,
2013-02-22 23:31:00,23.9,20.3,29.91,NNW,348,3.5,3.5,86,0.01,RA,,0.09,0.0,WeatherDisplay:10.37,2013-02-22 22:31:00,
2013-02-22 23:36:00,24.0,20.4,29.91,NNW,348,3.5,3.5,86,0.01,RA,,0.09,0.0,WeatherDisplay:10.37,2013-02-22 22:36:00,
2013-02-22 23:41:00,24.0,20.4,29.91,NNW,348,3.5,3.5,86,0.01,CLR,,0.09,0.0,WeatherDisplay:10.37,2013-02-22 22:41:00,
2013-02-22 23:46:00,24.0,20.4,29.91,NNW,348,3.5,3.5,86,0.01,CLR,,0.09,0.0,WeatherDisplay:10.37,2013-02-22 22:46:00,
2013-02-22 23:51:00,24.0,20.4,29.90,NNW,348,5.0,5.0,86,0.01,CLR,,0.09,0.0,WeatherDisplay:10.37,2013-02-22 22:51:00,
2013-02-22 23:56:00,24.0,20.4,29.90,NNW,348,3.5,3.5,86,0.01,CLR,,0.09,0.0,WeatherDisplay:10.37,2013-02-22 22:56:00,